Main page
METAR-TAF:

METAR-TAF

Airports :

Büchel Air Base

Büchel, Germany

latitude: 50-10N, longitude: 007-04E, elevation: 478 m

Current weather observation

The report was made 1 hour and 10 minutes ago, at 21:20 UTC
Wind 9 kt from the East/Northeast
Temperature 9°C
Humidity 87%
Pressure 1022 hPa
Visibility 10 km or more

METAR: ETSB 222120Z AUTO 06009KT 9999 // ////// 09/07 Q1022 ///

Time: 00:30 (22:30 UTC)

Forecast

The report was made 6 hours and 45 minutes ago, at 15:45 UTC
Forecast valid from 22 at 15 UTC to 22 at 23 UTC
Wind 5 kt from the East/Northeast
Visibility: 1545 m
Few clouds at a height of 2000 ft
Scattered clouds at a height of 26000 ft

TAF: ETSB 221545Z 2215/2223 06005KT 9999 NSW FEW020 SCT260 CANCEL 1545

Weather observations and forecasts of more than 4000 airports (METAR and TAF reports).

The available stations are represented by yellow and red dots on the map.

Hover mouse over dot to see the name of the station.

Then click to see weather observations and forecasts.

To change the map : click on the green buttons with a black cross to zoom in, on the green button with a dash to zoom out, or on the green arrows for adjacent maps.


METAR-TAF: